createdAt,value
2022-09-25T00:01:10.852Z,11.62
2022-09-25T00:03:38.854Z,11.59
2022-09-25T00:06:08.950Z,11.73
2022-09-25T00:08:37.449Z,11.63
2022-09-25T00:11:07.331Z,11.56
2022-09-25T00:13:37.010Z,11.62
2022-09-25T00:16:05.329Z,11.65
2022-09-25T00:18:50.831Z,11.68
2022-09-25T00:21:19.366Z,11.71
2022-09-25T00:23:47.916Z,11.63
2022-09-25T00:26:17.422Z,11.56
2022-09-25T00:28:46.794Z,11.57
2022-09-25T00:31:24.430Z,11.38
2022-09-25T00:33:52.482Z,11.34
2022-09-25T00:36:21.196Z,11.31
2022-09-25T00:38:48.982Z,11.37
2022-09-25T00:41:18.592Z,11.27
2022-09-25T00:43:50.661Z,11.24
2022-09-25T00:46:21.942Z,11.33
2022-09-25T00:48:52.520Z,11.36
2022-09-25T00:51:26.849Z,11.42
2022-09-25T00:53:54.580Z,11.41
2022-09-25T00:56:22.245Z,11.37
2022-09-25T00:58:52.124Z,11.42
2022-09-25T01:01:19.825Z,11.46
2022-09-25T01:03:48.154Z,11.62
2022-09-25T01:06:16.494Z,11.69
2022-09-25T01:08:45.720Z,11.73
2022-09-25T01:11:13.420Z,11.73
2022-09-25T01:13:41.270Z,11.85
2022-09-25T01:16:14.793Z,11.88
2022-09-25T01:19:03.231Z,11.92
2022-09-25T01:21:38.493Z,11.94
2022-09-25T01:24:36.463Z,11.94
2022-09-25T01:27:38.958Z,11.99
2022-09-25T01:30:11.440Z,11.90
2022-09-25T01:32:51.561Z,11.84
2022-09-25T01:35:27.004Z,11.90
2022-09-25T01:37:59.909Z,11.98
2022-09-25T01:40:33.701Z,11.90
2022-09-25T01:43:09.046Z,11.96
2022-09-25T01:45:44.920Z,11.96
2022-09-25T01:48:14.300Z,11.94
2022-09-25T01:50:46.870Z,11.85
2022-09-25T01:53:19.719Z,11.85
2022-09-25T01:55:51.783Z,11.85
2022-09-25T01:58:25.857Z,11.92
2022-09-25T02:01:00.338Z,11.89
2022-09-25T02:03:32.772Z,11.76
2022-09-25T02:06:03.443Z,11.82
2022-09-25T02:08:36.967Z,11.82
2022-09-25T02:11:06.697Z,11.78
2022-09-25T02:13:39.352Z,11.86
2022-09-25T02:16:12.585Z,11.93
2022-09-25T02:18:58.449Z,11.89
2022-09-25T02:21:34.381Z,11.87
2022-09-25T02:24:10.454Z,11.87
2022-09-25T02:26:38.609Z,11.86
2022-09-25T02:29:06.741Z,11.78
2022-09-25T02:31:40.411Z,11.83
2022-09-25T02:34:13.787Z,11.87
2022-09-25T02:36:44.846Z,11.90
2022-09-25T02:39:17.070Z,11.85
2022-09-25T02:42:03.152Z,11.92
2022-09-25T02:44:43.490Z,11.95
2022-09-25T02:47:23.217Z,11.93
2022-09-25T02:49:57.003Z,11.94
2022-09-25T02:52:34.978Z,11.89
2022-09-25T02:55:08.020Z,11.76
2022-09-25T02:57:44.496Z,11.84
2022-09-25T03:00:14.023Z,11.83
2022-09-25T03:02:51.434Z,11.83
2022-09-25T03:05:21.473Z,11.70
2022-09-25T03:08:06.834Z,11.72
2022-09-25T03:10:37.862Z,11.62
2022-09-25T03:13:16.741Z,11.56
2022-09-25T03:15:48.476Z,11.53
2022-09-25T03:18:18.030Z,11.64
2022-09-25T03:20:46.004Z,11.66
2022-09-25T03:23:13.986Z,11.71
2022-09-25T03:25:45.969Z,11.86
2022-09-25T03:28:16.916Z,11.81
2022-09-25T03:30:45.691Z,11.82
2022-09-25T03:33:14.401Z,11.78
2022-09-25T03:35:43.467Z,11.77
2022-09-25T03:38:12.455Z,11.80
2022-09-25T03:40:41.316Z,11.81
2022-09-25T03:45:35.751Z,11.73
2022-09-25T03:48:03.450Z,11.79
2022-09-25T03:50:31.142Z,11.64
2022-09-25T03:53:00.200Z,11.70
2022-09-25T03:55:27.887Z,11.77
2022-09-25T03:57:55.550Z,11.75
2022-09-25T04:00:24.187Z,11.80
2022-09-25T04:02:52.061Z,11.77
2022-09-25T04:05:20.032Z,11.84
2022-09-25T04:07:48.347Z,11.83
2022-09-25T04:10:17.594Z,11.71
2022-09-25T04:12:45.273Z,11.73
2022-09-25T04:15:12.944Z,11.76
2022-09-25T04:17:40.646Z,11.65
2022-09-25T04:20:09.688Z,11.67
2022-09-25T04:22:37.452Z,11.70
2022-09-25T04:25:05.900Z,11.69
2022-09-25T04:27:34.986Z,11.77
2022-09-25T04:30:02.643Z,11.82
2022-09-25T04:32:48.002Z,11.85
2022-09-25T04:35:15.907Z,11.83
2022-09-25T04:37:43.650Z,11.81
2022-09-25T04:40:12.135Z,11.75
2022-09-25T04:42:43.126Z,11.71
2022-09-25T04:45:11.670Z,11.71
2022-09-25T04:47:39.444Z,11.78
2022-09-25T04:50:08.105Z,11.86
2022-09-25T04:52:35.839Z,11.86
2022-09-25T04:55:04.214Z,11.81
2022-09-25T04:57:53.936Z,11.85
2022-09-25T05:00:22.125Z,11.81
2022-09-25T05:02:50.315Z,11.82
2022-09-25T05:05:18.487Z,11.75
2022-09-25T05:07:53.641Z,11.66
2022-09-25T05:10:21.790Z,11.57
2022-09-25T05:12:50.327Z,11.61
2022-09-25T05:15:18.115Z,11.64
2022-09-25T05:17:47.222Z,11.67
2022-09-25T05:20:15.101Z,11.70
2022-09-25T05:22:42.793Z,11.73
2022-09-25T05:25:10.992Z,11.66
2022-09-25T05:27:38.724Z,11.63
2022-09-25T05:30:09.509Z,11.64
2022-09-25T05:32:37.256Z,11.67
2022-09-25T05:35:07.869Z,11.54
2022-09-25T05:37:35.566Z,11.78
2022-09-25T05:40:03.743Z,11.75
2022-09-25T05:42:31.989Z,11.70
2022-09-25T05:45:04.951Z,11.69
2022-09-25T05:47:35.107Z,11.63
2022-09-25T05:50:04.091Z,11.75
2022-09-25T05:52:33.159Z,11.77
2022-09-25T05:55:00.844Z,11.79
2022-09-25T05:57:31.311Z,11.91
2022-09-25T05:59:59.721Z,11.87
2022-09-25T06:02:27.688Z,11.85
2022-09-25T06:04:55.367Z,11.86
2022-09-25T06:07:23.074Z,11.77
2022-09-25T06:09:52.108Z,11.81
2022-09-25T06:12:19.751Z,11.81
2022-09-25T06:14:47.955Z,11.75
2022-09-25T06:17:15.648Z,11.87
2022-09-25T06:19:43.326Z,11.89
2022-09-25T06:22:11.217Z,11.90
2022-09-25T06:24:38.895Z,11.84
2022-09-25T06:27:09.233Z,11.92
2022-09-25T06:29:37.124Z,11.87
2022-09-25T06:32:04.848Z,11.91
2022-09-25T06:34:32.701Z,11.85
2022-09-25T06:37:01.254Z,11.88
2022-09-25T06:39:28.931Z,11.90
2022-09-25T06:41:56.574Z,11.96
2022-09-25T06:44:26.097Z,11.95
2022-09-25T06:46:54.392Z,12.04
2022-09-25T06:49:22.406Z,12.08
2022-09-25T06:51:51.064Z,12.16
2022-09-25T06:54:20.023Z,12.11
2022-09-25T06:56:49.796Z,12.19
2022-09-25T06:59:17.590Z,12.16
2022-09-25T07:01:46.659Z,12.08
2022-09-25T07:04:13.754Z,12.17
2022-09-25T07:06:41.518Z,12.23
2022-09-25T07:09:09.364Z,12.31
2022-09-25T07:11:37.086Z,12.36
2022-09-25T07:14:04.828Z,12.46
2022-09-25T07:16:34.367Z,12.57
2022-09-25T07:19:04.380Z,12.51
2022-09-25T07:21:32.355Z,12.59
2022-09-25T07:24:00.399Z,12.64
2022-09-25T07:26:33.805Z,12.68
2022-09-25T07:29:03.652Z,12.82
2022-09-25T07:31:33.377Z,12.80
2022-09-25T07:34:08.941Z,12.58
2022-09-25T07:36:38.773Z,12.48
2022-09-25T07:39:06.850Z,12.60
2022-09-25T07:41:34.728Z,12.61
2022-09-25T07:44:24.300Z,12.57
2022-09-25T07:46:50.535Z,12.70
2022-09-25T07:49:19.675Z,12.67
2022-09-25T07:51:47.474Z,12.68
2022-09-25T07:54:15.216Z,12.55
2022-09-25T07:56:42.951Z,12.63
2022-09-25T07:59:10.670Z,12.57
2022-09-25T08:01:43.632Z,12.71
2022-09-25T08:04:12.753Z,12.73
2022-09-25T08:06:42.153Z,12.69
2022-09-25T08:09:11.867Z,12.72
2022-09-25T08:11:39.577Z,12.71
2022-09-25T08:14:07.374Z,12.82
2022-09-25T08:16:35.138Z,12.85
2022-09-25T08:19:03.790Z,12.70
2022-09-25T08:21:31.481Z,12.66
2022-09-25T08:24:01.115Z,12.69
2022-09-25T08:26:29.373Z,12.72
2022-09-25T08:28:57.217Z,12.75
2022-09-25T08:31:24.988Z,12.72
2022-09-25T08:33:54.257Z,12.70
2022-09-25T08:36:23.074Z,12.71
2022-09-25T08:38:50.807Z,12.62
2022-09-25T08:41:24.408Z,12.53
2022-09-25T08:44:01.658Z,12.61
2022-09-25T08:46:58.236Z,12.67
2022-09-25T08:49:29.451Z,12.55
2022-09-25T08:52:02.834Z,12.59
2022-09-25T08:54:32.871Z,12.74
2022-09-25T08:57:08.008Z,12.66
2022-09-25T08:59:38.609Z,12.58
2022-09-25T09:02:14.251Z,12.58
2022-09-25T09:04:47.806Z,12.67
2022-09-25T09:07:28.137Z,12.67
2022-09-25T09:10:01.895Z,12.68
2022-09-25T09:12:40.949Z,12.78
2022-09-25T09:15:19.820Z,12.74
2022-09-25T09:17:47.550Z,12.81
2022-09-25T09:20:19.104Z,12.74
2022-09-25T09:22:50.909Z,12.83
2022-09-25T09:25:31.010Z,12.93
2022-09-25T09:28:26.794Z,13.01
2022-09-25T09:31:01.694Z,13.02
2022-09-25T09:33:43.134Z,13.07
2022-09-25T09:36:17.771Z,12.94
2022-09-25T09:38:54.665Z,12.77
2022-09-25T09:41:52.797Z,12.96
2022-09-25T09:44:49.588Z,13.00
2022-09-25T09:47:33.311Z,12.96
2022-09-25T09:50:18.376Z,13.06
2022-09-25T09:52:50.174Z,13.11
2022-09-25T09:55:25.185Z,13.01
2022-09-25T09:57:55.378Z,13.08
2022-09-25T10:00:25.437Z,13.13
2022-09-25T10:02:59.328Z,13.17
2022-09-25T10:05:30.523Z,13.24
2022-09-25T10:07:58.427Z,13.32
2022-09-25T10:10:35.341Z,13.50
2022-09-25T10:13:06.647Z,13.41
2022-09-25T10:15:39.930Z,13.79
2022-09-25T10:18:08.737Z,13.89
2022-09-25T10:20:42.936Z,13.86
2022-09-25T10:23:25.931Z,13.92
2022-09-25T10:25:56.025Z,14.25
2022-09-25T10:28:28.525Z,14.39
2022-09-25T10:30:58.973Z,14.40
2022-09-25T10:33:28.421Z,14.76
2022-09-25T10:35:56.247Z,14.73
2022-09-25T10:38:32.959Z,14.78
2022-09-25T10:41:04.281Z,14.85
2022-09-25T10:43:32.089Z,15.29
2022-09-25T10:46:12.601Z,15.25
2022-09-25T10:48:58.620Z,15.69
2022-09-25T10:51:26.668Z,16.14
2022-09-25T10:54:11.128Z,16.51
2022-09-25T10:56:39.296Z,16.47
2022-09-25T10:59:17.405Z,16.25
2022-09-25T11:01:49.146Z,15.99
2022-09-25T11:04:21.171Z,16.16
2022-09-25T11:06:52.349Z,16.00
2022-09-25T11:09:22.596Z,16.05
2022-09-25T11:11:52.916Z,16.15
2022-09-25T11:14:25.972Z,15.93
2022-09-25T11:16:57.928Z,15.84
2022-09-25T11:19:28.911Z,15.47
2022-09-25T11:22:08.038Z,15.57
2022-09-25T11:25:01.076Z,15.66
2022-09-25T11:27:36.253Z,15.26
2022-09-25T11:30:07.605Z,15.11
2022-09-25T11:32:51.659Z,15.02
2022-09-25T11:35:29.770Z,14.91
2022-09-25T11:38:09.841Z,14.74
2022-09-25T11:41:02.125Z,14.60
2022-09-25T11:43:42.901Z,14.79
2022-09-25T11:46:23.201Z,15.06
2022-09-25T11:49:01.739Z,14.99
2022-09-25T11:51:50.481Z,14.88
2022-09-25T11:54:34.261Z,15.03
2022-09-25T11:57:07.632Z,14.58
2022-09-25T11:59:49.624Z,14.60
2022-09-25T12:02:31.738Z,14.76
2022-09-25T12:05:10.643Z,14.96
2022-09-25T12:08:03.693Z,14.94
2022-09-25T12:10:43.782Z,14.90
2022-09-25T12:13:19.140Z,14.97
2022-09-25T12:16:01.201Z,15.16
2022-09-25T12:18:49.422Z,14.73
2022-09-25T12:21:24.207Z,14.75
2022-09-25T12:23:59.113Z,15.07
2022-09-25T12:26:37.136Z,15.26
2022-09-25T12:29:19.570Z,15.19
2022-09-25T12:31:56.651Z,15.35
2022-09-25T12:34:37.860Z,15.29
2022-09-25T12:37:23.049Z,15.60
2022-09-25T12:39:58.184Z,15.74
2022-09-25T12:42:37.172Z,16.03
2022-09-25T12:45:15.517Z,16.25
2022-09-25T12:47:48.582Z,16.32
2022-09-25T12:50:18.487Z,16.00
2022-09-25T12:52:52.465Z,16.01
2022-09-25T12:55:26.058Z,16.00
2022-09-25T12:58:02.970Z,15.92
2022-09-25T13:00:34.726Z,15.78
2022-09-25T13:03:11.457Z,15.37
2022-09-25T13:05:45.194Z,14.97
2022-09-25T13:08:20.276Z,14.58
2022-09-25T13:10:53.527Z,14.69
2022-09-25T13:13:24.161Z,14.39
2022-09-25T13:15:54.336Z,14.39
2022-09-25T13:18:24.516Z,14.60
2022-09-25T13:20:53.998Z,14.68
2022-09-25T13:23:31.270Z,14.72
2022-09-25T13:26:01.985Z,14.61
2022-09-25T13:28:33.472Z,14.44
2022-09-25T13:31:09.926Z,14.49
2022-09-25T13:33:50.098Z,14.39
2022-09-25T13:36:32.705Z,14.39
2022-09-25T13:39:21.780Z,14.32
2022-09-25T13:41:53.424Z,14.42
2022-09-25T13:45:06.186Z,14.33
2022-09-25T13:47:34.837Z,14.56
2022-09-25T13:50:18.760Z,14.36
2022-09-25T13:53:16.558Z,14.26
2022-09-25T13:56:26.588Z,14.00
2022-09-25T13:59:36.859Z,13.87
2022-09-25T14:02:41.634Z,13.91
2022-09-25T14:05:09.612Z,13.96
2022-09-25T14:07:37.978Z,13.84
2022-09-25T14:10:12.668Z,13.80
2022-09-25T14:12:47.959Z,13.67
2022-09-25T14:15:24.475Z,13.64
2022-09-25T14:17:54.157Z,13.71
2022-09-25T14:20:33.336Z,13.68
2022-09-25T14:23:05.606Z,13.59
2022-09-25T14:25:36.433Z,13.45
2022-09-25T14:28:19.334Z,13.51
2022-09-25T14:30:53.753Z,13.51
2022-09-25T14:33:42.420Z,13.41
2022-09-25T14:36:22.740Z,13.41
2022-09-25T14:39:25.189Z,13.19
2022-09-25T14:42:15.997Z,13.25
2022-09-25T14:45:08.907Z,13.26
2022-09-25T14:47:39.289Z,13.00
2022-09-25T14:50:08.223Z,13.11
2022-09-25T14:52:37.743Z,13.07
2022-09-25T14:55:06.585Z,13.09
2022-09-25T14:57:37.151Z,13.09
2022-09-25T15:00:08.855Z,13.17
2022-09-25T15:02:40.758Z,13.13
2022-09-25T15:05:20.009Z,13.22
2022-09-25T15:07:47.923Z,13.16
2022-09-25T15:10:28.524Z,13.12
2022-09-25T15:13:05.825Z,13.19
2022-09-25T15:15:35.398Z,13.18
2022-09-25T15:18:02.703Z,13.06
2022-09-25T15:20:32.699Z,13.23
2022-09-25T15:23:03.371Z,13.18
2022-09-25T15:25:33.694Z,13.36
2022-09-25T15:28:01.707Z,13.19
2022-09-25T15:30:29.804Z,13.10
2022-09-25T15:33:01.105Z,13.21
2022-09-25T15:35:30.528Z,13.30
2022-09-25T15:38:09.387Z,13.30
2022-09-25T15:40:37.661Z,13.11
2022-09-25T15:43:13.271Z,13.22
2022-09-25T15:45:46.064Z,13.21
2022-09-25T15:48:25.998Z,13.17
2022-09-25T15:50:55.171Z,13.12
2022-09-25T15:53:27.250Z,13.07
2022-09-25T15:56:03.204Z,12.94
2022-09-25T15:58:31.354Z,13.02
2022-09-25T16:01:19.629Z,12.84
2022-09-25T16:04:09.789Z,12.90
2022-09-25T16:06:42.791Z,12.93
2022-09-25T16:09:20.015Z,12.80
2022-09-25T16:11:48.463Z,12.80
2022-09-25T16:14:30.365Z,12.78
2022-09-25T16:17:00.062Z,12.73
2022-09-25T16:19:34.148Z,12.77
2022-09-25T16:22:16.622Z,12.78
2022-09-25T16:24:51.080Z,12.80
2022-09-25T16:27:28.807Z,12.74
2022-09-25T16:30:03.696Z,12.80
2022-09-25T16:32:32.643Z,12.85
2022-09-25T16:35:03.721Z,12.78
2022-09-25T16:37:34.733Z,12.73
2022-09-25T16:40:25.208Z,12.68
2022-09-25T16:42:55.483Z,12.74
2022-09-25T16:45:27.858Z,12.65
2022-09-25T16:47:58.282Z,12.71
2022-09-25T16:50:29.401Z,12.75
2022-09-25T16:52:57.041Z,12.82
2022-09-25T16:55:28.906Z,12.76
2022-09-25T16:57:58.943Z,12.72
2022-09-25T17:00:29.130Z,12.59
2022-09-25T17:02:57.243Z,12.56
2022-09-25T17:05:29.402Z,12.52
2022-09-25T17:07:57.956Z,12.55
2022-09-25T17:10:32.092Z,12.53
2022-09-25T17:13:02.444Z,12.55
2022-09-25T17:15:34.072Z,12.41
2022-09-25T17:18:02.883Z,12.43
2022-09-25T17:20:32.357Z,12.39
2022-09-25T17:23:01.147Z,12.33
2022-09-25T17:25:41.318Z,12.31
2022-09-25T17:28:10.544Z,12.32
2022-09-25T17:30:39.736Z,12.40
2022-09-25T17:33:13.455Z,12.21
2022-09-25T17:35:47.146Z,12.19
2022-09-25T17:38:14.825Z,12.25
2022-09-25T17:40:45.622Z,12.22
2022-09-25T17:43:15.135Z,12.16
2022-09-25T17:45:48.286Z,12.19
2022-09-25T17:48:16.080Z,12.19
2022-09-25T17:50:47.038Z,12.18
2022-09-25T17:53:18.384Z,12.19
2022-09-25T17:55:52.650Z,12.20
2022-09-25T17:58:22.166Z,12.11
2022-09-25T18:00:51.271Z,12.23
2022-09-25T18:03:19.699Z,12.17
2022-09-25T18:05:49.139Z,12.16
2022-09-25T18:08:17.911Z,12.09
2022-09-25T18:10:46.080Z,12.32
2022-09-25T18:13:17.154Z,12.21
2022-09-25T18:15:49.317Z,12.21
2022-09-25T18:18:17.341Z,12.27
2022-09-25T18:21:06.974Z,12.20
2022-09-25T18:23:39.065Z,12.24
2022-09-25T18:26:09.249Z,12.21
2022-09-25T18:28:36.948Z,12.11
2022-09-25T18:31:04.747Z,12.13
2022-09-25T18:33:32.489Z,12.08
2022-09-25T18:36:00.499Z,12.05
2022-09-25T18:38:28.351Z,12.03
2022-09-25T18:40:57.440Z,12.09
2022-09-25T18:43:25.805Z,12.07
2022-09-25T18:45:53.539Z,12.06
2022-09-25T18:48:21.344Z,11.93
2022-09-25T18:50:49.868Z,11.95
2022-09-25T18:53:18.514Z,11.96
2022-09-25T18:55:46.205Z,11.97
2022-09-25T18:58:15.264Z,12.01
2022-09-25T19:00:43.140Z,12.00
2022-09-25T19:03:10.918Z,12.00
2022-09-25T19:05:38.854Z,12.04
2022-09-25T19:08:06.573Z,12.05
2022-09-25T19:10:35.274Z,12.14
2022-09-25T19:13:03.102Z,12.13
2022-09-25T19:15:33.343Z,12.02
2022-09-25T19:18:01.113Z,11.88
2022-09-25T19:20:28.821Z,11.79
2022-09-25T19:22:56.710Z,11.60
2022-09-25T19:25:24.366Z,11.66
2022-09-25T19:27:52.031Z,11.75
2022-09-25T19:30:19.978Z,11.68
2022-09-25T19:32:50.859Z,11.69
2022-09-25T19:35:18.924Z,11.69
2022-09-25T19:37:46.599Z,11.62
2022-09-25T19:40:31.621Z,11.56
2022-09-25T19:43:01.025Z,11.36
2022-09-25T19:45:29.511Z,11.48
2022-09-25T19:47:58.621Z,11.45
2022-09-25T19:50:26.273Z,11.32
2022-09-25T19:52:54.695Z,11.39
2022-09-25T19:55:22.408Z,11.27
2022-09-25T19:57:50.227Z,11.22
2022-09-25T20:00:18.367Z,11.15
2022-09-25T20:02:47.510Z,11.24
2022-09-25T20:05:17.776Z,11.19
2022-09-25T20:07:45.475Z,11.18
2022-09-25T20:10:13.715Z,11.18
2022-09-25T20:12:41.381Z,11.15
2022-09-25T20:15:09.689Z,11.20
2022-09-25T20:17:37.412Z,11.18
2022-09-25T20:20:05.564Z,11.04
2022-09-25T20:22:34.666Z,11.05
2022-09-25T20:25:02.362Z,10.99
2022-09-25T20:27:30.058Z,11.00
2022-09-25T20:29:57.754Z,10.99
2022-09-25T20:32:25.415Z,11.01
2022-09-25T20:34:53.503Z,11.02
2022-09-25T20:37:21.198Z,10.97
2022-09-25T20:39:50.344Z,11.08
2022-09-25T20:42:18.505Z,11.06
2022-09-25T20:44:46.203Z,11.10
2022-09-25T20:47:14.050Z,11.09
2022-09-25T20:49:41.803Z,10.97
2022-09-25T20:52:12.380Z,10.96
2022-09-25T20:54:41.724Z,10.95
2022-09-25T20:57:10.785Z,11.05
2022-09-25T20:59:39.018Z,11.06
2022-09-25T21:02:07.063Z,11.08
2022-09-25T21:04:34.920Z,11.08
2022-09-25T21:07:03.563Z,11.00
2022-09-25T21:09:31.249Z,11.03
2022-09-25T21:11:58.999Z,11.05
2022-09-25T21:14:29.789Z,10.82
2022-09-25T21:16:57.587Z,10.96
2022-09-25T21:19:25.479Z,10.86
2022-09-25T21:21:53.232Z,10.91
2022-09-25T21:24:22.104Z,10.82
2022-09-25T21:26:51.342Z,10.72
2022-09-25T21:29:19.858Z,10.80
2022-09-25T21:31:50.561Z,10.75
2022-09-25T21:34:19.392Z,10.79
2022-09-25T21:36:47.858Z,10.71
2022-09-25T21:39:15.804Z,10.75
2022-09-25T21:41:44.300Z,10.81
2022-09-25T21:44:15.268Z,10.73
2022-09-25T21:46:43.414Z,10.91
2022-09-25T21:49:17.878Z,10.97
2022-09-25T21:51:47.004Z,11.17
2022-09-25T21:54:16.121Z,11.20
2022-09-25T21:56:44.341Z,11.19
2022-09-25T21:59:12.354Z,11.15
2022-09-25T22:01:40.952Z,11.06
2022-09-25T22:04:11.491Z,11.07
2022-09-25T22:06:42.700Z,11.05
2022-09-25T22:09:12.599Z,11.05
2022-09-25T22:11:43.263Z,11.11
2022-09-25T22:14:15.759Z,11.18
2022-09-25T22:16:45.565Z,11.23
2022-09-25T22:19:15.839Z,11.17
2022-09-25T22:21:46.122Z,10.86
2022-09-25T22:24:14.439Z,11.04
2022-09-25T22:26:44.636Z,11.04
2022-09-25T22:29:13.000Z,11.06
2022-09-25T22:31:43.095Z,11.19
2022-09-25T22:34:16.312Z,11.11
2022-09-25T22:36:45.712Z,11.18
2022-09-25T22:39:14.935Z,11.09
2022-09-25T22:41:43.152Z,11.14
2022-09-25T22:44:10.903Z,11.07
2022-09-25T22:46:38.682Z,11.13
2022-09-25T22:49:06.634Z,11.15
2022-09-25T22:51:34.411Z,11.17
2022-09-25T22:54:03.540Z,11.17
2022-09-25T22:56:32.735Z,10.97
2022-09-25T22:59:02.220Z,10.95
2022-09-25T23:01:33.094Z,11.10
2022-09-25T23:04:02.989Z,10.95
2022-09-25T23:06:32.238Z,11.08
2022-09-25T23:09:02.753Z,11.14
2022-09-25T23:11:32.220Z,11.03
2022-09-25T23:14:02.094Z,10.98
2022-09-25T23:16:31.814Z,10.97
2022-09-25T23:19:00.544Z,10.92
2022-09-25T23:21:30.183Z,11.07
2022-09-25T23:23:58.570Z,11.08
2022-09-25T23:26:26.764Z,11.06
2022-09-25T23:28:55.862Z,10.99
2022-09-25T23:31:23.613Z,11.05
2022-09-25T23:33:51.415Z,11.10
2022-09-25T23:36:21.596Z,11.03
2022-09-25T23:38:49.887Z,11.18
2022-09-25T23:41:19.750Z,11.14
2022-09-25T23:43:48.833Z,11.14
2022-09-25T23:46:19.235Z,11.21
2022-09-25T23:48:47.006Z,11.21
2022-09-25T23:51:16.083Z,11.03
2022-09-25T23:53:44.946Z,11.14
2022-09-25T23:56:15.161Z,11.23
2022-09-25T23:58:43.319Z,11.15
